EWG5LB LEBL-EDDL
Flight info
| Callsign | EWG5LB |
|---|---|
| Flight time | 1h 48m |
| Altitude | 30000 |
| Route | OLOXO DCT OKABI/N0442F360 DCT TOU DCT ADABI DCT BOKNO DCT DIBES DCT VIQAQ DCT TSU DCT LEQOS DCT CTL DCT ARDEN/N0439F350 DCT KOMOB T859 NVO T857 BIKMU BIKMU1A |
| Aircraft | A320/M-SDE3FGHIRWY/LB1 |
Departure
| Time | 2026-05-07 10:50 |
|---|---|
| Airport | Josep Tarradellas Barcelona-El Prat Airport (LEBL) |
Arrival
| Time | 2026-05-07 12:39 |
|---|---|
| Airport | Düsseldorf Airport (EDDL) |
| Time | Latitude | Longitude | Altitude | Speed | Heading |
|---|---|---|---|---|---|
| 2026-05-07 10:29 | 41.30407 | 2.08306 | 21 ft | 0 kts | 276° |
| 2026-05-07 10:39 | 41.30407 | 2.08312 | 48 ft | 3 kts | 277° |
| 2026-05-07 10:39 | 41.30400 | 2.08346 | 14 ft | 4 kts | 298° |
| 2026-05-07 10:39 | 41.30385 | 2.08373 | 21 ft | 4 kts | 320° |
| 2026-05-07 10:39 | 41.30363 | 2.08393 | 21 ft | 4 kts | 334° |
| 2026-05-07 10:40 | 41.30341 | 2.08407 | 23 ft | 3 kts | 332° |
| 2026-05-07 10:40 | 41.30317 | 2.08417 | 23 ft | 4 kts | 4° |
| 2026-05-07 10:40 | 41.30292 | 2.08407 | 20 ft | 4 kts | 38° |
| 2026-05-07 10:40 | 41.30276 | 2.08383 | 19 ft | 3 kts | 66° |
| 2026-05-07 10:41 | 41.30267 | 2.08350 | 20 ft | 3 kts | 66° |
| 2026-05-07 10:41 | 41.30265 | 2.08344 | 21 ft | 0 kts | 65° |
| 2026-05-07 10:43 | 41.30274 | 2.08371 | 19 ft | 8 kts | 65° |
| 2026-05-07 10:43 | 41.30274 | 2.08447 | 18 ft | 10 kts | 146° |
| 2026-05-07 10:43 | 41.30219 | 2.08403 | 18 ft | 10 kts | 245° |
| 2026-05-07 10:43 | 41.30186 | 2.08309 | 18 ft | 14 kts | 245° |
| 2026-05-07 10:44 | 41.30144 | 2.08185 | 17 ft | 14 kts | 245° |
| 2026-05-07 10:44 | 41.30104 | 2.08067 | 18 ft | 14 kts | 245° |
| 2026-05-07 10:44 | 41.30045 | 2.07988 | 17 ft | 12 kts | 176° |
| 2026-05-07 10:44 | 41.29972 | 2.08031 | 18 ft | 13 kts | 156° |
| 2026-05-07 10:45 | 41.29858 | 2.08087 | 18 ft | 22 kts | 160° |
| 2026-05-07 10:45 | 41.29706 | 2.08173 | 17 ft | 25 kts | 155° |
| 2026-05-07 10:45 | 41.29543 | 2.08272 | 17 ft | 26 kts | 156° |
| 2026-05-07 10:45 | 41.29384 | 2.08369 | 19 ft | 25 kts | 155° |
| 2026-05-07 10:46 | 41.29239 | 2.08450 | 21 ft | 17 kts | 171° |
| 2026-05-07 10:46 | 41.29120 | 2.08409 | 19 ft | 19 kts | 199° |
| 2026-05-07 10:46 | 41.28991 | 2.08352 | 18 ft | 21 kts | 199° |
| 2026-05-07 10:46 | 41.28844 | 2.08283 | 17 ft | 24 kts | 199° |
| 2026-05-07 10:47 | 41.28697 | 2.08214 | 19 ft | 15 kts | 208° |
| 2026-05-07 10:47 | 41.28649 | 2.08106 | 17 ft | 13 kts | 246° |
| 2026-05-07 10:47 | 41.28612 | 2.07997 | 18 ft | 12 kts | 246° |
| 2026-05-07 10:47 | 41.28578 | 2.07900 | 17 ft | 11 kts | 245° |
| 2026-05-07 10:48 | 41.28544 | 2.07800 | 16 ft | 15 kts | 246° |
| 2026-05-07 10:48 | 41.28504 | 2.07681 | 17 ft | 14 kts | 246° |
| 2026-05-07 10:48 | 41.28457 | 2.07581 | 16 ft | 12 kts | 214° |
| 2026-05-07 10:48 | 41.28380 | 2.07541 | 16 ft | 11 kts | 200° |
| 2026-05-07 10:49 | 41.28318 | 2.07501 | 18 ft | 9 kts | 222° |
| 2026-05-07 10:49 | 41.28292 | 2.07437 | 19 ft | 8 kts | 245° |
| 2026-05-07 10:49 | 41.28254 | 2.07398 | 20 ft | 7 kts | 185° |
| 2026-05-07 10:49 | 41.28229 | 2.07425 | 18 ft | 4 kts | 101° |
| 2026-05-07 10:50 | 41.28257 | 2.07509 | 19 ft | 22 kts | 65° |
| 2026-05-07 10:50 | 41.28419 | 2.07986 | 20 ft | 92 kts | 65° |
| 2026-05-07 10:50 | 41.28764 | 2.08996 | 26 ft | 146 kts | 69° |
| 2026-05-07 10:50 | 41.29170 | 2.10244 | 667 ft | 146 kts | 75° |
| 2026-05-07 10:51 | 41.29247 | 2.11594 | 1346 ft | 154 kts | 92° |
| 2026-05-07 10:51 | 41.29134 | 2.13109 | 1748 ft | 176 kts | 96° |
| 2026-05-07 10:51 | 41.28972 | 2.14815 | 2153 ft | 194 kts | 96° |
| 2026-05-07 10:51 | 41.28799 | 2.16630 | 2781 ft | 200 kts | 96° |
| 2026-05-07 10:52 | 41.28627 | 2.18482 | 3404 ft | 205 kts | 96° |
| 2026-05-07 10:52 | 41.28458 | 2.20355 | 4018 ft | 209 kts | 96° |
| 2026-05-07 10:52 | 41.28285 | 2.22306 | 4609 ft | 216 kts | 96° |
| 2026-05-07 10:52 | 41.28110 | 2.24311 | 5186 ft | 221 kts | 96° |
| 2026-05-07 10:53 | 41.27933 | 2.26355 | 5781 ft | 225 kts | 96° |
| 2026-05-07 10:53 | 41.27964 | 2.28427 | 6370 ft | 227 kts | 72° |
| 2026-05-07 10:53 | 41.28777 | 2.30206 | 6914 ft | 229 kts | 40° |
| 2026-05-07 10:53 | 41.30227 | 2.31177 | 7229 ft | 247 kts | 8° |
| 2026-05-07 10:54 | 41.32014 | 2.31425 | 7596 ft | 270 kts | 3° |
| 2026-05-07 10:54 | 41.33896 | 2.31646 | 8287 ft | 279 kts | 4° |
| 2026-05-07 10:54 | 41.35852 | 2.31880 | 9140 ft | 284 kts | 2° |
| 2026-05-07 10:54 | 41.37835 | 2.32125 | 9999 ft | 289 kts | 4° |
| 2026-05-07 10:55 | 41.39899 | 2.32383 | 10429 ft | 309 kts | 3° |
| 2026-05-07 10:55 | 41.42124 | 2.32660 | 10702 ft | 332 kts | 4° |
| 2026-05-07 10:55 | 41.44466 | 2.33028 | 11252 ft | 344 kts | 6° |
| 2026-05-07 10:55 | 41.46849 | 2.33552 | 11927 ft | 351 kts | 8° |
| 2026-05-07 10:56 | 41.49271 | 2.34164 | 12653 ft | 356 kts | 11° |
| 2026-05-07 10:56 | 41.51684 | 2.34799 | 13380 ft | 361 kts | 11° |
| 2026-05-07 10:56 | 41.54173 | 2.35453 | 14034 ft | 367 kts | 10° |
| 2026-05-07 10:56 | 41.56688 | 2.36100 | 14744 ft | 369 kts | 9° |
| 2026-05-07 10:57 | 41.59221 | 2.36737 | 15411 ft | 373 kts | 9° |
| 2026-05-07 10:57 | 41.61787 | 2.37355 | 16056 ft | 376 kts | 6° |
| 2026-05-07 10:57 | 41.64400 | 2.37343 | 16678 ft | 378 kts | 348° |
| 2026-05-07 10:57 | 41.66880 | 2.36245 | 17285 ft | 377 kts | 329° |
| 2026-05-07 10:58 | 41.68987 | 2.34243 | 17901 ft | 378 kts | 318° |
| 2026-05-07 10:58 | 41.71025 | 2.32010 | 18514 ft | 381 kts | 317° |
| 2026-05-07 10:58 | 41.73075 | 2.29741 | 19074 ft | 384 kts | 317° |
| 2026-05-07 10:58 | 41.75141 | 2.27450 | 19632 ft | 387 kts | 317° |
| 2026-05-07 10:59 | 41.77224 | 2.25146 | 20185 ft | 390 kts | 317° |
| 2026-05-07 10:59 | 41.79329 | 2.22825 | 20724 ft | 393 kts | 317° |
| 2026-05-07 10:59 | 41.81447 | 2.20496 | 21247 ft | 396 kts | 317° |
| 2026-05-07 10:59 | 41.83584 | 2.18146 | 21773 ft | 399 kts | 317° |
| 2026-05-07 11:00 | 41.85735 | 2.15777 | 22287 ft | 402 kts | 317° |
| 2026-05-07 11:00 | 41.87901 | 2.13387 | 22797 ft | 404 kts | 317° |
| 2026-05-07 11:00 | 41.90053 | 2.11010 | 23301 ft | 407 kts | 317° |
| 2026-05-07 11:00 | 41.92247 | 2.08585 | 23755 ft | 410 kts | 317° |
| 2026-05-07 11:01 | 41.94455 | 2.06142 | 24167 ft | 413 kts | 316° |
| 2026-05-07 11:01 | 41.96677 | 2.03679 | 24584 ft | 415 kts | 316° |
| 2026-05-07 11:01 | 41.98911 | 2.01204 | 25014 ft | 417 kts | 316° |
| 2026-05-07 11:01 | 42.01153 | 1.98717 | 25423 ft | 419 kts | 316° |
| 2026-05-07 11:02 | 42.03408 | 1.96217 | 25813 ft | 421 kts | 316° |
| 2026-05-07 11:02 | 42.05676 | 1.93697 | 26211 ft | 424 kts | 316° |
| 2026-05-07 11:02 | 42.07918 | 1.91203 | 26586 ft | 426 kts | 316° |
| 2026-05-07 11:02 | 42.10208 | 1.88650 | 26970 ft | 429 kts | 316° |
| 2026-05-07 11:03 | 42.12513 | 1.86080 | 27334 ft | 431 kts | 316° |
| 2026-05-07 11:03 | 42.14828 | 1.83498 | 27704 ft | 433 kts | 316° |
| 2026-05-07 11:03 | 42.17154 | 1.80899 | 28080 ft | 435 kts | 315° |
| 2026-05-07 11:03 | 42.19489 | 1.78291 | 28453 ft | 437 kts | 316° |
| 2026-05-07 11:04 | 42.21834 | 1.75673 | 28826 ft | 439 kts | 316° |
| 2026-05-07 11:04 | 42.24188 | 1.73036 | 29158 ft | 441 kts | 315° |
| 2026-05-07 11:04 | 42.26520 | 1.70418 | 29496 ft | 443 kts | 315° |
| 2026-05-07 11:04 | 42.28893 | 1.67752 | 29832 ft | 445 kts | 315° |
| 2026-05-07 11:05 | 42.31278 | 1.65069 | 30134 ft | 447 kts | 315° |
| 2026-05-07 11:05 | 42.33671 | 1.62373 | 30398 ft | 449 kts | 315° |
| 2026-05-07 11:05 | 42.36075 | 1.59664 | 30665 ft | 451 kts | 315° |
| 2026-05-07 11:05 | 42.38489 | 1.56947 | 30927 ft | 453 kts | 315° |
| 2026-05-07 11:06 | 42.41030 | 1.54381 | 31237 ft | 458 kts | 323° |
| 2026-05-07 11:06 | 42.43860 | 1.52364 | 31648 ft | 463 kts | 333° |
| 2026-05-07 11:06 | 42.46882 | 1.50969 | 31948 ft | 469 kts | 342° |
| 2026-05-07 11:06 | 42.50111 | 1.50209 | 32289 ft | 473 kts | 349° |
| 2026-05-07 11:07 | 42.53378 | 1.49677 | 32615 ft | 473 kts | 349° |
| 2026-05-07 11:07 | 42.56646 | 1.49151 | 32945 ft | 472 kts | 349° |
| 2026-05-07 11:07 | 42.59907 | 1.48629 | 33315 ft | 472 kts | 349° |
| 2026-05-07 11:07 | 42.63164 | 1.48110 | 33720 ft | 470 kts | 349° |
| 2026-05-07 11:08 | 42.66412 | 1.47589 | 34084 ft | 469 kts | 349° |
| 2026-05-07 11:08 | 42.69650 | 1.47071 | 34395 ft | 469 kts | 349° |
| 2026-05-07 11:08 | 42.72845 | 1.46560 | 34718 ft | 468 kts | 349° |
| 2026-05-07 11:08 | 42.76076 | 1.46044 | 35027 ft | 467 kts | 349° |
| 2026-05-07 11:09 | 42.79299 | 1.45527 | 35330 ft | 466 kts | 349° |
| 2026-05-07 11:09 | 42.82518 | 1.45006 | 35619 ft | 466 kts | 349° |
| 2026-05-07 11:09 | 42.85737 | 1.44481 | 35830 ft | 466 kts | 349° |
| 2026-05-07 11:09 | 42.88956 | 1.43956 | 35974 ft | 466 kts | 349° |
| 2026-05-07 11:10 | 42.95381 | 1.42914 | 36008 ft | 464 kts | 349° |
| 2026-05-07 11:10 | 43.01745 | 1.41879 | 36027 ft | 464 kts | 349° |
| 2026-05-07 11:11 | 43.08140 | 1.40841 | 36009 ft | 463 kts | 349° |
| 2026-05-07 11:11 | 43.14533 | 1.39799 | 36019 ft | 463 kts | 349° |
| 2026-05-07 11:12 | 43.20923 | 1.38759 | 36023 ft | 462 kts | 349° |
| 2026-05-07 11:12 | 43.27270 | 1.37713 | 36031 ft | 462 kts | 349° |
| 2026-05-07 11:13 | 43.33660 | 1.36665 | 36026 ft | 462 kts | 349° |
| 2026-05-07 11:13 | 43.40046 | 1.35621 | 36023 ft | 462 kts | 349° |
| 2026-05-07 11:14 | 43.46427 | 1.34565 | 36037 ft | 462 kts | 349° |
| 2026-05-07 11:14 | 43.52758 | 1.33521 | 36027 ft | 461 kts | 349° |
| 2026-05-07 11:15 | 43.59125 | 1.32475 | 36022 ft | 461 kts | 349° |
| 2026-05-07 11:15 | 43.65483 | 1.31417 | 36041 ft | 460 kts | 349° |
| 2026-05-07 11:16 | 43.71822 | 1.30211 | 36037 ft | 458 kts | 346° |
| 2026-05-07 11:16 | 43.78033 | 1.28581 | 36027 ft | 457 kts | 345° |
| 2026-05-07 11:17 | 43.84266 | 1.26822 | 36035 ft | 457 kts | 345° |
| 2026-05-07 11:17 | 43.90515 | 1.25152 | 36031 ft | 458 kts | 346° |
| 2026-05-07 11:18 | 43.96780 | 1.23551 | 36022 ft | 458 kts | 346° |
| 2026-05-07 11:18 | 44.02997 | 1.21957 | 36030 ft | 458 kts | 345° |
| 2026-05-07 11:19 | 44.09259 | 1.20328 | 36028 ft | 458 kts | 345° |
| 2026-05-07 11:19 | 44.15515 | 1.18699 | 36026 ft | 457 kts | 345° |
| 2026-05-07 11:20 | 44.21772 | 1.17060 | 36022 ft | 457 kts | 345° |
| 2026-05-07 11:20 | 44.27978 | 1.15437 | 36027 ft | 457 kts | 345° |
| 2026-05-07 11:21 | 44.34220 | 1.13798 | 36028 ft | 457 kts | 345° |
| 2026-05-07 11:21 | 44.40465 | 1.12149 | 36017 ft | 456 kts | 345° |
| 2026-05-07 11:22 | 44.46708 | 1.10508 | 36024 ft | 456 kts | 345° |
| 2026-05-07 11:22 | 44.52940 | 1.08855 | 36017 ft | 456 kts | 345° |
| 2026-05-07 11:23 | 44.59133 | 1.07209 | 36014 ft | 456 kts | 345° |
| 2026-05-07 11:23 | 44.65367 | 1.05553 | 36029 ft | 456 kts | 345° |
| 2026-05-07 11:24 | 44.71602 | 1.03900 | 36026 ft | 456 kts | 345° |
| 2026-05-07 11:24 | 44.77793 | 1.02254 | 36020 ft | 456 kts | 345° |
| 2026-05-07 11:25 | 44.84013 | 1.00588 | 36019 ft | 455 kts | 345° |
| 2026-05-07 11:25 | 44.90236 | 0.98920 | 36008 ft | 455 kts | 345° |
| 2026-05-07 11:26 | 44.96460 | 0.97258 | 36008 ft | 455 kts | 345° |
| 2026-05-07 11:26 | 45.02685 | 0.95590 | 36009 ft | 455 kts | 345° |
| 2026-05-07 11:27 | 45.08861 | 0.93919 | 36006 ft | 455 kts | 345° |
| 2026-05-07 11:27 | 45.15088 | 0.92226 | 36016 ft | 456 kts | 345° |
| 2026-05-07 11:28 | 45.21323 | 0.90537 | 36028 ft | 456 kts | 345° |
| 2026-05-07 11:28 | 45.27550 | 0.88856 | 36045 ft | 456 kts | 345° |
| 2026-05-07 11:29 | 45.33737 | 0.87172 | 36029 ft | 455 kts | 345° |
| 2026-05-07 11:29 | 45.39958 | 0.85473 | 36035 ft | 456 kts | 345° |
| 2026-05-07 11:30 | 45.46189 | 0.83772 | 36029 ft | 456 kts | 345° |
| 2026-05-07 11:30 | 45.52413 | 0.82067 | 36031 ft | 455 kts | 345° |
| 2026-05-07 11:31 | 45.58595 | 0.80361 | 36034 ft | 455 kts | 345° |
| 2026-05-07 11:31 | 45.64811 | 0.78652 | 36035 ft | 455 kts | 345° |
| 2026-05-07 11:32 | 45.74136 | 0.76090 | 36028 ft | 455 kts | 345° |
| 2026-05-07 11:33 | 45.80347 | 0.74365 | 36030 ft | 455 kts | 345° |
| 2026-05-07 11:33 | 45.86524 | 0.72657 | 36026 ft | 455 kts | 345° |
| 2026-05-07 11:34 | 45.92739 | 0.70934 | 36020 ft | 455 kts | 345° |
| 2026-05-07 11:34 | 45.98948 | 0.69204 | 36034 ft | 455 kts | 346° |
| 2026-05-07 11:35 | 46.05159 | 0.67473 | 36030 ft | 454 kts | 345° |
| 2026-05-07 11:35 | 46.11323 | 0.65741 | 36035 ft | 454 kts | 346° |
| 2026-05-07 11:36 | 46.17528 | 0.64009 | 36048 ft | 454 kts | 346° |
| 2026-05-07 11:36 | 46.23731 | 0.62269 | 36043 ft | 454 kts | 346° |
| 2026-05-07 11:37 | 46.29934 | 0.60513 | 36041 ft | 454 kts | 346° |
| 2026-05-07 11:37 | 46.36136 | 0.58755 | 36045 ft | 454 kts | 346° |
| 2026-05-07 11:38 | 46.42292 | 0.57012 | 36045 ft | 454 kts | 346° |
| 2026-05-07 11:38 | 46.48488 | 0.55258 | 36044 ft | 454 kts | 346° |
| 2026-05-07 11:39 | 46.54729 | 0.53780 | 36041 ft | 457 kts | 354° |
| 2026-05-07 11:39 | 46.61065 | 0.54711 | 36048 ft | 461 kts | 11° |
| 2026-05-07 11:40 | 46.67324 | 0.56796 | 36045 ft | 462 kts | 10° |
| 2026-05-07 11:40 | 46.73545 | 0.58844 | 36043 ft | 461 kts | 10° |
| 2026-05-07 11:41 | 46.79814 | 0.60895 | 36041 ft | 461 kts | 10° |
| 2026-05-07 11:41 | 46.86077 | 0.62960 | 36042 ft | 462 kts | 10° |
| 2026-05-07 11:42 | 46.92342 | 0.65048 | 36042 ft | 462 kts | 11° |
| 2026-05-07 11:42 | 46.98569 | 0.67131 | 36056 ft | 462 kts | 11° |
| 2026-05-07 11:43 | 47.04764 | 0.69648 | 36052 ft | 464 kts | 21° |
| 2026-05-07 11:43 | 47.10407 | 0.74279 | 36048 ft | 466 kts | 30° |
| 2026-05-07 11:44 | 47.15944 | 0.79211 | 36048 ft | 466 kts | 30° |
| 2026-05-07 11:44 | 47.21499 | 0.84134 | 36053 ft | 466 kts | 30° |
| 2026-05-07 11:45 | 47.27001 | 0.89046 | 36057 ft | 466 kts | 30° |
| 2026-05-07 11:45 | 47.32526 | 0.94023 | 36049 ft | 466 kts | 30° |
| 2026-05-07 11:46 | 47.38049 | 0.99004 | 36049 ft | 466 kts | 30° |
| 2026-05-07 11:46 | 47.43584 | 1.03989 | 36056 ft | 466 kts | 30° |
| 2026-05-07 11:47 | 47.49076 | 1.08948 | 36053 ft | 466 kts | 30° |
| 2026-05-07 11:47 | 47.54664 | 1.13775 | 36055 ft | 465 kts | 27° |
| 2026-05-07 11:48 | 47.60398 | 1.18175 | 36064 ft | 464 kts | 25° |
| 2026-05-07 11:48 | 47.66160 | 1.22504 | 36060 ft | 464 kts | 25° |
| 2026-05-07 11:49 | 47.71843 | 1.26910 | 36055 ft | 464 kts | 26° |
| 2026-05-07 11:49 | 47.77529 | 1.31421 | 36052 ft | 463 kts | 26° |
| 2026-05-07 11:50 | 47.83215 | 1.35930 | 36063 ft | 463 kts | 26° |
| 2026-05-07 11:50 | 47.88902 | 1.40423 | 36064 ft | 462 kts | 26° |
| 2026-05-07 11:51 | 47.94585 | 1.44928 | 36064 ft | 462 kts | 26° |
| 2026-05-07 11:51 | 48.00224 | 1.49423 | 36060 ft | 462 kts | 26° |
| 2026-05-07 11:52 | 48.05890 | 1.53944 | 36062 ft | 462 kts | 26° |
| 2026-05-07 11:52 | 48.11559 | 1.58456 | 36064 ft | 461 kts | 26° |
| 2026-05-07 11:53 | 48.17219 | 1.62982 | 36054 ft | 461 kts | 26° |
| 2026-05-07 11:53 | 48.22872 | 1.67517 | 36068 ft | 461 kts | 27° |
| 2026-05-07 11:54 | 48.28486 | 1.72038 | 36058 ft | 461 kts | 27° |
| 2026-05-07 11:54 | 48.34129 | 1.76598 | 36059 ft | 460 kts | 27° |
| 2026-05-07 11:55 | 48.39775 | 1.81159 | 36057 ft | 460 kts | 27° |
| 2026-05-07 11:55 | 48.45413 | 1.85714 | 36070 ft | 460 kts | 27° |
| 2026-05-07 11:56 | 48.50998 | 1.90269 | 36062 ft | 459 kts | 27° |
| 2026-05-07 11:56 | 48.56616 | 1.94859 | 36064 ft | 459 kts | 27° |
| 2026-05-07 11:57 | 48.62231 | 1.99455 | 36060 ft | 459 kts | 27° |
| 2026-05-07 11:57 | 48.67849 | 2.04061 | 36067 ft | 459 kts | 27° |
| 2026-05-07 11:58 | 48.73124 | 2.09364 | 36066 ft | 461 kts | 42° |
| 2026-05-07 11:58 | 48.77054 | 2.16993 | 36063 ft | 462 kts | 62° |
| 2026-05-07 11:59 | 48.79569 | 2.25942 | 36054 ft | 462 kts | 68° |
| 2026-05-07 11:59 | 48.81976 | 2.34979 | 36051 ft | 462 kts | 68° |
| 2026-05-07 12:00 | 48.84371 | 2.43967 | 36050 ft | 463 kts | 68° |
| 2026-05-07 12:00 | 48.86777 | 2.53037 | 36056 ft | 463 kts | 68° |
| 2026-05-07 12:01 | 48.89171 | 2.62129 | 36085 ft | 463 kts | 68° |
| 2026-05-07 12:01 | 48.91551 | 2.71216 | 36082 ft | 463 kts | 68° |
| 2026-05-07 12:02 | 48.93936 | 2.80322 | 36082 ft | 463 kts | 68° |
| 2026-05-07 12:02 | 48.96301 | 2.89365 | 36077 ft | 463 kts | 68° |
| 2026-05-07 12:03 | 48.98661 | 2.98486 | 36078 ft | 463 kts | 68° |
| 2026-05-07 12:03 | 49.01005 | 3.07613 | 36077 ft | 463 kts | 69° |
| 2026-05-07 12:04 | 49.03339 | 3.16687 | 36080 ft | 463 kts | 68° |
| 2026-05-07 12:04 | 49.05689 | 3.25830 | 36087 ft | 463 kts | 69° |
| 2026-05-07 12:05 | 49.08021 | 3.34970 | 36082 ft | 462 kts | 69° |
| 2026-05-07 12:05 | 49.10347 | 3.44108 | 36080 ft | 462 kts | 69° |
| 2026-05-07 12:06 | 49.12655 | 3.53199 | 36078 ft | 462 kts | 66° |
| 2026-05-07 12:06 | 49.15969 | 3.61549 | 36077 ft | 460 kts | 49° |
| 2026-05-07 12:07 | 49.20212 | 3.68867 | 36070 ft | 460 kts | 47° |
| 2026-05-07 12:07 | 49.24447 | 3.76206 | 36083 ft | 460 kts | 48° |
| 2026-05-07 12:08 | 49.28671 | 3.83593 | 36083 ft | 461 kts | 48° |
| 2026-05-07 12:08 | 49.32864 | 3.90922 | 36078 ft | 460 kts | 48° |
| 2026-05-07 12:09 | 49.37086 | 3.98296 | 36081 ft | 460 kts | 48° |
| 2026-05-07 12:09 | 49.41303 | 4.05671 | 36077 ft | 460 kts | 48° |
| 2026-05-07 12:10 | 49.45523 | 4.13071 | 36083 ft | 460 kts | 48° |
| 2026-05-07 12:10 | 49.49699 | 4.20436 | 36083 ft | 460 kts | 48° |
| 2026-05-07 12:11 | 49.53889 | 4.27868 | 36078 ft | 460 kts | 48° |
| 2026-05-07 12:11 | 49.58080 | 4.35313 | 36076 ft | 460 kts | 48° |
| 2026-05-07 12:12 | 49.62270 | 4.42771 | 36077 ft | 460 kts | 48° |
| 2026-05-07 12:12 | 49.65748 | 4.48970 | 36079 ft | 460 kts | 48° |
| 2026-05-07 12:13 | 49.70605 | 4.57655 | 36084 ft | 460 kts | 48° |
| 2026-05-07 12:13 | 49.74779 | 4.65143 | 36085 ft | 459 kts | 49° |
| 2026-05-07 12:14 | 49.78241 | 4.71372 | 36082 ft | 459 kts | 49° |
| 2026-05-07 12:14 | 49.82400 | 4.78877 | 36080 ft | 459 kts | 49° |
| 2026-05-07 12:15 | 49.87226 | 4.87608 | 36087 ft | 459 kts | 49° |
| 2026-05-07 12:15 | 49.91374 | 4.95137 | 36076 ft | 459 kts | 49° |
| 2026-05-07 12:16 | 49.94815 | 5.01398 | 36066 ft | 459 kts | 49° |
| 2026-05-07 12:16 | 49.98944 | 5.08945 | 36080 ft | 458 kts | 49° |
| 2026-05-07 12:17 | 50.03736 | 5.17726 | 36080 ft | 458 kts | 49° |
| 2026-05-07 12:17 | 50.07185 | 5.24065 | 36069 ft | 457 kts | 49° |
| 2026-05-07 12:18 | 50.11262 | 5.31579 | 36074 ft | 457 kts | 49° |
| 2026-05-07 12:18 | 50.15371 | 5.39150 | 36071 ft | 458 kts | 49° |
| 2026-05-07 12:19 | 50.19479 | 5.46740 | 36076 ft | 458 kts | 49° |
| 2026-05-07 12:19 | 50.23581 | 5.54360 | 36072 ft | 458 kts | 49° |
| 2026-05-07 12:20 | 50.27647 | 5.61951 | 36072 ft | 459 kts | 49° |
| 2026-05-07 12:20 | 50.31746 | 5.69609 | 36079 ft | 459 kts | 49° |
| 2026-05-07 12:21 | 50.35843 | 5.77266 | 36068 ft | 459 kts | 49° |
| 2026-05-07 12:21 | 50.39933 | 5.84948 | 36075 ft | 459 kts | 49° |
| 2026-05-07 12:22 | 50.43988 | 5.92598 | 36076 ft | 459 kts | 49° |
| 2026-05-07 12:22 | 50.48067 | 6.00307 | 36061 ft | 459 kts | 50° |
| 2026-05-07 12:23 | 50.52147 | 6.08045 | 35285 ft | 466 kts | 49° |
| 2026-05-07 12:23 | 50.54233 | 6.12005 | 34260 ft | 473 kts | 49° |
| 2026-05-07 12:23 | 50.56330 | 6.15991 | 33308 ft | 474 kts | 49° |
| 2026-05-07 12:23 | 50.58431 | 6.19993 | 32338 ft | 475 kts | 49° |
| 2026-05-07 12:24 | 50.60533 | 6.24012 | 31301 ft | 477 kts | 50° |
| 2026-05-07 12:24 | 50.62616 | 6.27999 | 30281 ft | 479 kts | 50° |
| 2026-05-07 12:24 | 50.64758 | 6.32023 | 29034 ft | 481 kts | 49° |
| 2026-05-07 12:24 | 50.66954 | 6.36027 | 27736 ft | 484 kts | 48° |
| 2026-05-07 12:25 | 50.69189 | 6.40029 | 26398 ft | 488 kts | 48° |
| 2026-05-07 12:25 | 50.71454 | 6.44055 | 25109 ft | 491 kts | 48° |
| 2026-05-07 12:25 | 50.73710 | 6.48076 | 24261 ft | 486 kts | 48° |
| 2026-05-07 12:25 | 50.75923 | 6.52050 | 23518 ft | 478 kts | 49° |
| 2026-05-07 12:26 | 50.78091 | 6.55976 | 22601 ft | 472 kts | 49° |
| 2026-05-07 12:26 | 50.80283 | 6.59783 | 21716 ft | 465 kts | 42° |
| 2026-05-07 12:26 | 50.82862 | 6.62675 | 20927 ft | 457 kts | 26° |
| 2026-05-07 12:26 | 50.85815 | 6.64362 | 20130 ft | 449 kts | 11° |
| 2026-05-07 12:27 | 50.88885 | 6.65093 | 19358 ft | 444 kts | 6° |
| 2026-05-07 12:27 | 50.91933 | 6.65743 | 18605 ft | 440 kts | 7° |
| 2026-05-07 12:27 | 50.94957 | 6.66380 | 17818 ft | 435 kts | 6° |
| 2026-05-07 12:27 | 50.97940 | 6.67010 | 17036 ft | 430 kts | 6° |
| 2026-05-07 12:28 | 51.00889 | 6.67638 | 16279 ft | 425 kts | 6° |
| 2026-05-07 12:28 | 51.03813 | 6.67830 | 15553 ft | 418 kts | 355° |
| 2026-05-07 12:28 | 51.06702 | 6.67607 | 14829 ft | 413 kts | 355° |
| 2026-05-07 12:28 | 51.09517 | 6.67419 | 14145 ft | 409 kts | 360° |
| 2026-05-07 12:29 | 51.12319 | 6.68056 | 13426 ft | 406 kts | 13° |
| 2026-05-07 12:29 | 51.15033 | 6.69256 | 12641 ft | 402 kts | 14° |
| 2026-05-07 12:29 | 51.17703 | 6.70472 | 11892 ft | 398 kts | 15° |
| 2026-05-07 12:29 | 51.20348 | 6.71693 | 11145 ft | 393 kts | 16° |
| 2026-05-07 12:30 | 51.22963 | 6.72909 | 10406 ft | 389 kts | 16° |
| 2026-05-07 12:30 | 51.25546 | 6.74107 | 9651 ft | 385 kts | 15° |
| 2026-05-07 12:30 | 51.28060 | 6.75409 | 8882 ft | 380 kts | 24° |
| 2026-05-07 12:30 | 51.30295 | 6.77590 | 8160 ft | 375 kts | 34° |
| 2026-05-07 12:31 | 51.32416 | 6.79959 | 7400 ft | 369 kts | 34° |
| 2026-05-07 12:31 | 51.34469 | 6.82286 | 6676 ft | 363 kts | 34° |
| 2026-05-07 12:31 | 51.36511 | 6.84619 | 5902 ft | 358 kts | 35° |
| 2026-05-07 12:31 | 51.38519 | 6.86921 | 5143 ft | 352 kts | 34° |
| 2026-05-07 12:32 | 51.40495 | 6.89184 | 4290 ft | 348 kts | 35° |
| 2026-05-07 12:32 | 51.42439 | 6.91410 | 3791 ft | 334 kts | 34° |
| 2026-05-07 12:32 | 51.44266 | 6.93500 | 3650 ft | 313 kts | 34° |
| 2026-05-07 12:32 | 51.45943 | 6.95551 | 3526 ft | 294 kts | 45° |
| 2026-05-07 12:33 | 51.46743 | 7.01339 | 3260 ft | 270 kts | 111° |
| 2026-05-07 12:33 | 51.45617 | 7.03557 | 3142 ft | 257 kts | 146° |
| 2026-05-07 12:33 | 51.43984 | 7.04389 | 3018 ft | 242 kts | 180° |
| 2026-05-07 12:34 | 51.42428 | 7.03782 | 3002 ft | 223 kts | 211° |
| 2026-05-07 12:34 | 51.41300 | 7.02180 | 3004 ft | 217 kts | 235° |
| 2026-05-07 12:34 | 51.40386 | 7.00236 | 2999 ft | 218 kts | 235° |
| 2026-05-07 12:34 | 51.39479 | 6.98302 | 3006 ft | 214 kts | 236° |
| 2026-05-07 12:35 | 51.38605 | 6.96452 | 2973 ft | 204 kts | 236° |
| 2026-05-07 12:35 | 51.37752 | 6.94646 | 2778 ft | 203 kts | 236° |
| 2026-05-07 12:35 | 51.36911 | 6.92868 | 2535 ft | 197 kts | 234° |
| 2026-05-07 12:35 | 51.36098 | 6.91149 | 2259 ft | 191 kts | 236° |
| 2026-05-07 12:36 | 51.35316 | 6.89500 | 2015 ft | 184 kts | 235° |
| 2026-05-07 12:36 | 51.34583 | 6.87954 | 1760 ft | 165 kts | 236° |
| 2026-05-07 12:36 | 51.33924 | 6.86565 | 1541 ft | 151 kts | 235° |
| 2026-05-07 12:36 | 51.33309 | 6.85269 | 1347 ft | 144 kts | 236° |
| 2026-05-07 12:37 | 51.32706 | 6.83997 | 1156 ft | 143 kts | 236° |
| 2026-05-07 12:37 | 51.32109 | 6.82739 | 964 ft | 141 kts | 235° |
| 2026-05-07 12:37 | 51.31518 | 6.81493 | 775 ft | 140 kts | 237° |
| 2026-05-07 12:37 | 51.30930 | 6.80256 | 595 ft | 142 kts | 236° |
| 2026-05-07 12:38 | 51.30338 | 6.79011 | 401 ft | 142 kts | 237° |
| 2026-05-07 12:38 | 51.29738 | 6.77751 | 209 ft | 144 kts | 237° |
| 2026-05-07 12:38 | 51.29170 | 6.76539 | 132 ft | 120 kts | 233° |
| 2026-05-07 12:38 | 51.28767 | 6.75701 | 125 ft | 71 kts | 233° |
| 2026-05-07 12:39 | 51.28510 | 6.75165 | 121 ft | 47 kts | 232° |
| 2026-05-07 12:39 | 51.28389 | 6.74934 | 119 ft | 8 kts | 204° |
| 2026-05-07 12:39 | 51.28329 | 6.74957 | 118 ft | 11 kts | 153° |
| 2026-05-07 12:39 | 51.28267 | 6.75006 | 120 ft | 9 kts | 154° |
| 2026-05-07 12:40 | 51.28189 | 6.75067 | 120 ft | 18 kts | 154° |
| 2026-05-07 12:40 | 51.28047 | 6.75178 | 118 ft | 25 kts | 152° |
| 2026-05-07 12:40 | 51.27888 | 6.75311 | 123 ft | 27 kts | 153° |
| 2026-05-07 12:40 | 51.27737 | 6.75432 | 123 ft | 22 kts | 153° |
| 2026-05-07 12:41 | 51.27622 | 6.75521 | 123 ft | 17 kts | 160° |
| 2026-05-07 12:41 | 51.27523 | 6.75593 | 125 ft | 15 kts | 153° |
| 2026-05-07 12:41 | 51.27442 | 6.75673 | 127 ft | 13 kts | 125° |
| 2026-05-07 12:41 | 51.27459 | 6.75785 | 126 ft | 10 kts | 63° |
| 2026-05-07 12:42 | 51.27479 | 6.75901 | 131 ft | 12 kts | 103° |
| 2026-05-07 12:42 | 51.27476 | 6.76020 | 129 ft | 11 kts | 70° |
| 2026-05-07 12:42 | 51.27514 | 6.76116 | 129 ft | 11 kts | 21° |
| 2026-05-07 12:42 | 51.27597 | 6.76063 | 130 ft | 14 kts | 333° |
| 2026-05-07 12:43 | 51.27705 | 6.76041 | 128 ft | 17 kts | 1° |
| 2026-05-07 12:43 | 51.27837 | 6.76045 | 129 ft | 20 kts | 1° |
| 2026-05-07 12:43 | 51.27987 | 6.76047 | 127 ft | 23 kts | 359° |
| 2026-05-07 12:43 | 51.28089 | 6.76126 | 126 ft | 17 kts | 52° |
| 2026-05-07 12:44 | 51.28150 | 6.76288 | 124 ft | 16 kts | 93° |
| 2026-05-07 12:44 | 51.28099 | 6.76412 | 128 ft | 11 kts | 144° |
| 2026-05-07 12:44 | 51.28072 | 6.76466 | 125 ft | 5 kts | 100° |
| 2026-05-07 12:44 | 51.28069 | 6.76523 | 128 ft | 5 kts | 96° |
| 2026-05-07 12:45 | 51.28068 | 6.76534 | 128 ft | 0 kts | 97° |